Time;durP1;ratioP1;P1;durP2;ratioP2;P2;SDS_P1;SDS_P2;PMS_P1;PMS_P2;Temp;Humidity;BMP_temperature;BMP_pressure;BME280_temperature;BME280_humidity;BME280_pressure;Samples;Min_cycle;Max_cycle;Signal;HPM_P1;HPM_P2
2023/05/11 00:00:02;;;;;;;7.20;6.50;;;;;13.70;96647.00;;;;5098276;28;20211;-68
2023/05/11 00:02:51;;;;;;;6.73;6.10;;;;;13.70;96636.00;;;;5084935;28;20199;-68
2023/05/11 00:05:41;;;;;;;11.03;6.57;;;;;13.40;96639.00;;;;5085442;28;20195;-68
2023/05/11 00:08:30;;;;;;;7.23;6.53;;;;;13.60;96631.00;;;;5104123;28;20214;-68
2023/05/11 00:11:20;;;;;;;8.23;7.43;;;;;13.70;96635.00;;;;5097484;28;20218;-68
2023/05/11 00:14:10;;;;;;;7.40;6.73;;;;;13.50;96631.00;;;;5079924;28;20231;-68
2023/05/11 00:16:59;;;;;;;6.57;5.97;;;;;13.50;96642.00;;;;5084197;28;20218;-68
2023/05/11 00:19:48;;;;;;;7.70;6.77;;;;;13.70;96637.00;;;;5106639;28;20247;-68
2023/05/11 00:22:38;;;;;;;7.27;6.67;;;;;13.80;96635.00;;;;5103984;28;20242;-68
2023/05/11 00:25:27;;;;;;;7.83;7.13;;;;;13.50;96628.00;;;;5105480;28;20670;-68
2023/05/11 00:28:16;;;;;;;7.07;6.47;;;;;13.50;96627.00;;;;5110141;28;20227;-68
2023/05/11 00:31:06;;;;;;;7.70;7.00;;;;;13.70;96623.00;;;;5110672;28;20214;-68
2023/05/11 00:33:55;;;;;;;6.77;6.17;;;;;13.70;96618.00;;;;5099228;28;20768;-68
2023/05/11 00:36:44;;;;;;;7.37;6.73;;;;;13.40;96617.00;;;;5108431;28;20272;-68
2023/05/11 00:39:38;;;;;;;6.80;6.10;;;;;13.10;96615.00;;;;5101953;28;20205;-68
2023/05/11 00:42:27;;;;;;;7.53;6.83;;;;;13.40;96619.00;;;;5110013;28;20210;-68
2023/05/11 00:45:17;;;;;;;8.27;7.50;;;;;13.60;96621.00;;;;5111077;28;20591;-68
2023/05/11 00:48:07;;;;;;;7.00;6.40;;;;;13.70;96612.00;;;;5111145;28;20233;-68
2023/05/11 00:50:57;;;;;;;13.50;7.30;;;;;13.80;96614.00;;;;5099316;28;20195;-68
2023/05/11 00:53:46;;;;;;;7.50;6.90;;;;;13.70;96612.00;;;;5093460;28;20753;-68
2023/05/11 00:56:35;;;;;;;7.47;6.87;;;;;13.70;96616.00;;;;5109982;28;20221;-68
2023/05/11 00:59:24;;;;;;;7.60;6.90;;;;;13.80;96611.00;;;;5107794;28;20218;-68
2023/05/11 01:02:13;;;;;;;7.07;6.47;;;;;13.50;96614.00;;;;5110290;28;20200;-68
2023/05/11 01:05:04;;;;;;;7.97;7.27;;;;;13.20;96607.00;;;;5110034;28;20194;-68
2023/05/11 01:07:59;;;;;;;7.90;7.20;;;;;13.50;96613.00;;;;5102966;28;20639;-68
2023/05/11 01:10:53;;;;;;;7.13;6.53;;;;;13.60;96611.00;;;;5108130;28;20673;-68
2023/05/11 01:13:46;;;;;;;7.90;7.20;;;;;13.70;96605.00;;;;5108005;28;20241;-68
2023/05/11 01:16:37;;;;;;;6.97;6.33;;;;;13.70;96604.00;;;;5110499;28;20256;-68
2023/05/11 01:19:39;;;;;;;9.80;6.47;;;;;13.50;96601.00;;;;5108948;28;20199;-68
2023/05/11 01:22:38;;;;;;;7.93;7.13;;;;;13.60;96601.00;;;;5108509;28;20202;-68
2023/05/11 01:25:40;;;;;;;9.20;8.37;;;;;13.70;96606.00;;;;5109194;28;20588;-68
2023/05/11 01:28:55;;;;;;;7.67;7.00;;;;;13.60;96605.00;;;;5107651;28;20205;-68
2023/05/11 01:31:47;;;;;;;7.73;7.03;;;;;13.60;96601.00;;;;5109029;28;20199;-68
2023/05/11 01:34:39;;;;;;;8.30;7.50;;;;;13.50;96605.00;;;;5088961;28;20706;-68
2023/05/11 01:37:29;;;;;;;8.60;7.90;;;;;13.60;96598.00;;;;5106191;28;20218;-68
2023/05/11 01:40:21;;;;;;;7.13;6.50;;;;;13.60;96606.00;;;;5103561;28;20234;-68
2023/05/11 01:43:13;;;;;;;7.53;6.83;;;;;13.70;96607.00;;;;5102712;28;20222;-68
2023/05/11 01:46:03;;;;;;;7.63;6.93;;;;;13.70;96598.00;;;;5079268;28;20210;-68
2023/05/11 01:48:57;;;;;;;7.20;6.50;;;;;13.70;96613.00;;;;5079386;28;20199;-68
2023/05/11 01:51:48;;;;;;;7.53;6.73;;;;;13.70;96604.00;;;;5089671;28;20606;-68
2023/05/11 01:54:38;;;;;;;7.00;6.33;;;;;13.70;96607.00;;;;5091838;28;20216;-68
2023/05/11 01:57:28;;;;;;;8.00;6.93;;;;;13.70;96611.00;;;;5103700;28;20230;-68
2023/05/11 02:00:18;;;;;;;7.47;6.70;;;;;13.70;96602.00;;;;5109321;28;20700;-68
2023/05/11 02:03:09;;;;;;;7.67;7.00;;;;;13.50;96613.00;;;;5083626;28;20215;-68
2023/05/11 02:06:00;;;;;;;7.73;7.03;;;;;13.60;96603.00;;;;5095491;28;20198;-68
2023/05/11 02:08:50;;;;;;;7.17;6.57;;;;;13.60;96605.00;;;;5108534;28;20248;-68
2023/05/11 02:11:41;;;;;;;7.77;7.07;;;;;13.60;96606.00;;;;5098097;28;20204;-68
2023/05/11 02:14:32;;;;;;;7.17;6.47;;;;;13.70;96596.00;;;;5094777;28;20284;-68
2023/05/11 02:17:22;;;;;;;6.80;6.20;;;;;13.50;96600.00;;;;5108926;28;20291;-68
2023/05/11 02:20:12;;;;;;;11.47;7.70;;;;;13.40;96597.00;;;;5102551;28;20206;-68
2023/05/11 02:23:03;;;;;;;6.67;6.07;;;;;13.40;96597.00;;;;5109197;28;20259;-68
2023/05/11 02:25:53;;;;;;;6.50;5.93;;;;;13.20;96597.00;;;;5086113;28;20206;-68
2023/05/11 02:28:42;;;;;;;7.33;6.63;;;;;13.40;96602.00;;;;5107555;28;20234;-68
2023/05/11 02:31:35;;;;;;;6.73;6.13;;;;;13.30;96595.00;;;;5108033;28;20581;-68
2023/05/11 02:34:26;;;;;;;7.57;5.33;;;;;13.40;96594.00;;;;5106379;28;20286;-68
2023/05/11 02:37:20;;;;;;;6.87;6.20;;;;;13.20;96584.00;;;;5105769;28;20685;-68
2023/05/11 02:40:15;;;;;;;6.53;5.87;;;;;13.20;96589.00;;;;5091095;28;20199;-68
2023/05/11 02:43:08;;;;;;;6.13;5.53;;;;;13.00;96586.00;;;;5081668;28;20203;-68
2023/05/11 02:46:02;;;;;;;6.47;5.87;;;;;13.20;96583.00;;;;5097658;28;20313;-68
2023/05/11 02:48:54;;;;;;;6.80;6.20;;;;;13.20;96588.00;;;;5096702;28;20579;-68
2023/05/11 02:51:44;;;;;;;6.30;5.70;;;;;13.20;96582.00;;;;5108477;28;20206;-68
2023/05/11 02:54:34;;;;;;;8.93;6.57;;;;;13.20;96574.00;;;;5107570;28;20210;-68
2023/05/11 02:57:25;;;;;;;6.30;5.70;;;;;13.20;96580.00;;;;5103080;28;20238;-68
2023/05/11 03:00:16;;;;;;;10.93;5.47;;;;;13.10;96580.00;;;;5082137;28;20203;-68
2023/05/11 03:03:05;;;;;;;7.77;6.87;;;;;13.20;96573.00;;;;5095795;28;20251;-68
2023/05/11 03:05:54;;;;;;;7.23;6.63;;;;;13.20;96577.00;;;;5108116;28;20190;-68
2023/05/11 03:08:43;;;;;;;7.13;6.53;;;;;13.10;96570.00;;;;5106741;28;20259;-68
2023/05/11 03:11:33;;;;;;;6.80;6.20;;;;;13.00;96571.00;;;;5106358;28;20207;-68
2023/05/11 03:14:23;;;;;;;6.40;5.80;;;;;13.00;96562.00;;;;5108148;28;20198;-68
2023/05/11 03:17:13;;;;;;;8.17;6.30;;;;;13.10;96561.00;;;;5107160;28;20219;-68
2023/05/11 03:20:02;;;;;;;7.13;6.43;;;;;12.80;96551.00;;;;5108010;28;21076;-68
2023/05/11 03:22:52;;;;;;;7.87;7.03;;;;;12.90;96560.00;;;;5107230;28;20790;-68
2023/05/11 03:25:42;;;;;;;7.03;6.07;;;;;13.10;96561.00;;;;5106199;28;20267;-68
2023/05/11 03:28:32;;;;;;;8.27;6.93;;;;;13.00;96565.00;;;;5106792;28;20205;-68
2023/05/11 03:31:22;;;;;;;5.93;5.43;;;;;13.10;96569.00;;;;5105029;28;20198;-68
2023/05/11 03:34:11;;;;;;;7.57;6.77;;;;;13.10;96563.00;;;;5100796;28;20209;-68
2023/05/11 03:37:01;;;;;;;6.67;6.07;;;;;13.10;96567.00;;;;5097861;28;20253;-68
2023/05/11 03:39:54;;;;;;;6.60;5.87;;;;;13.00;96565.00;;;;5100302;28;20280;-68
2023/05/11 03:42:44;;;;;;;6.03;5.43;;;;;13.00;96560.00;;;;5107931;28;20693;-68
2023/05/11 03:45:34;;;;;;;7.63;6.93;;;;;13.10;96566.00;;;;5101293;28;20261;-68
2023/05/11 03:48:24;;;;;;;6.80;6.17;;;;;12.90;96561.00;;;;5107076;28;20230;-68
2023/05/11 03:51:14;;;;;;;9.40;6.50;;;;;12.90;96560.00;;;;5104456;28;20355;-68
2023/05/11 03:54:03;;;;;;;12.27;6.10;;;;;13.00;96563.00;;;;5074574;28;20245;-68
2023/05/11 03:56:52;;;;;;;7.30;5.50;;;;;13.00;96561.00;;;;5087471;28;20228;-68
2023/05/11 03:59:41;;;;;;;6.07;5.47;;;;;13.10;96564.00;;;;5101904;28;20253;-68
2023/05/11 04:02:30;;;;;;;7.63;6.43;;;;;13.10;96559.00;;;;5089343;28;20725;-68
2023/05/11 04:05:21;;;;;;;7.23;6.10;;;;;13.00;96558.00;;;;5081027;28;20196;-68
2023/05/11 04:08:10;;;;;;;6.87;6.17;;;;;13.00;96557.00;;;;5083004;28;20227;-68
2023/05/11 04:10:59;;;;;;;6.50;5.87;;;;;13.10;96562.00;;;;5081725;28;20206;-68
2023/05/11 04:13:49;;;;;;;6.77;6.07;;;;;13.10;96559.00;;;;5084299;28;20206;-68
2023/05/11 04:16:38;;;;;;;6.63;5.97;;;;;13.20;96562.00;;;;5090868;28;20231;-68
2023/05/11 04:19:27;;;;;;;6.43;5.87;;;;;12.90;96554.00;;;;5091598;28;20211;-68
2023/05/11 04:22:17;;;;;;;8.73;6.37;;;;;13.00;96560.00;;;;5090282;28;20210;-68
2023/05/11 04:25:07;;;;;;;6.47;5.67;;;;;12.70;96557.00;;;;5086398;28;20760;-68
2023/05/11 04:27:56;;;;;;;8.10;5.70;;;;;12.70;96557.00;;;;5083952;28;20762;-68
2023/05/11 04:30:45;;;;;;;7.43;6.73;;;;;12.60;96558.00;;;;5101033;28;20375;-69
2023/05/11 04:33:34;;;;;;;8.17;6.50;;;;;12.70;96572.00;;;;5085526;28;20552;-69
2023/05/11 04:36:23;;;;;;;8.50;7.13;;;;;12.50;96559.00;;;;5086978;28;20223;-69
2023/05/11 04:39:14;;;;;;;12.67;6.77;;;;;12.40;96564.00;;;;5083316;28;20203;-69
2023/05/11 04:42:04;;;;;;;7.03;6.33;;;;;12.80;96577.00;;;;5090003;28;20203;-69
2023/05/11 04:44:54;;;;;;;6.50;5.90;;;;;13.10;96570.00;;;;5102872;28;20203;-69
2023/05/11 04:47:43;;;;;;;6.30;5.80;;;;;13.10;96576.00;;;;5107547;28;20686;-69
2023/05/11 04:50:32;;;;;;;6.50;5.73;;;;;13.00;96572.00;;;;5090190;28;20204;-69
2023/05/11 04:53:21;;;;;;;8.03;6.40;;;;;12.70;96569.00;;;;5079530;28;20578;-69
2023/05/11 04:56:11;;;;;;;8.97;6.60;;;;;12.70;96576.00;;;;5083369;28;20222;-69
2023/05/11 04:59:00;;;;;;;7.40;6.80;;;;;12.80;96574.00;;;;5080499;28;20720;-69
2023/05/11 05:01:50;;;;;;;7.77;7.03;;;;;13.20;96576.00;;;;5099053;28;20190;-69
2023/05/11 05:04:39;;;;;;;9.73;6.43;;;;;13.00;96569.00;;;;5088660;28;20208;-68
2023/05/11 05:07:28;;;;;;;7.57;6.73;;;;;13.10;96573.00;;;;5093816;28;20226;-69
2023/05/11 05:10:18;;;;;;;7.50;6.70;;;;;13.30;96575.00;;;;5085881;28;20203;-69
2023/05/11 05:13:08;;;;;;;7.50;6.67;;;;;13.00;96573.00;;;;5091226;28;20210;-69
2023/05/11 05:15:57;;;;;;;7.63;6.93;;;;;13.00;96576.00;;;;5099055;28;20301;-69
2023/05/11 05:18:46;;;;;;;7.50;6.80;;;;;13.10;96573.00;;;;5100329;28;20211;-70
2023/05/11 05:21:35;;;;;;;7.47;6.77;;;;;13.20;96567.00;;;;5096970;28;20746;-69
2023/05/11 05:24:24;;;;;;;7.57;6.87;;;;;13.30;96569.00;;;;5089750;28;20598;-70
2023/05/11 05:27:13;;;;;;;6.27;5.57;;;;;13.10;96566.00;;;;5092642;28;20230;-70
2023/05/11 05:30:05;;;;;;;8.47;7.47;;;;;13.00;96562.00;;;;5084361;28;20199;-68
2023/05/11 05:32:54;;;;;;;6.97;6.33;;;;;12.90;96561.00;;;;5098426;28;20566;-68
2023/05/11 05:35:45;;;;;;;7.93;6.53;;;;;13.40;96558.00;;;;5096767;28;20685;-68
2023/05/11 05:38:34;;;;;;;7.40;5.73;;;;;13.50;96558.00;;;;5085273;28;20254;-68
2023/05/11 05:41:23;;;;;;;5.97;5.43;;;;;13.00;96557.00;;;;5085729;28;20210;-68
2023/05/11 05:44:12;;;;;;;7.20;6.60;;;;;13.40;96563.00;;;;5107519;28;20823;-69
2023/05/11 05:47:02;;;;;;;10.33;7.30;;;;;13.20;96552.00;;;;5098535;28;20215;-69
2023/05/11 05:49:51;;;;;;;7.00;6.30;;;;;13.60;96562.00;;;;5084223;28;20203;-69
2023/05/11 05:52:40;;;;;;;7.13;6.43;;;;;13.40;96563.00;;;;5084302;28;20299;-68
2023/05/11 05:55:30;;;;;;;7.33;5.60;;;;;13.10;96548.00;;;;5096100;28;20267;-68
2023/05/11 05:58:19;;;;;;;7.63;5.87;;;;;13.50;96561.00;;;;5106885;28;20727;-68
2023/05/11 06:01:08;;;;;;;6.97;6.27;;;;;13.30;96556.00;;;;5109366;28;20234;-69
2023/05/11 06:03:58;;;;;;;6.73;6.03;;;;;13.50;96551.00;;;;5110009;28;20202;-69
2023/05/11 06:06:47;;;;;;;10.23;6.50;;;;;13.60;96545.00;;;;5107096;28;20214;-70
2023/05/11 06:09:36;;;;;;;6.27;5.20;;;;;13.60;96555.00;;;;5109513;28;20272;-69
2023/05/11 06:12:26;;;;;;;8.47;6.97;;;;;13.80;96560.00;;;;5086537;28;20213;-69
2023/05/11 06:15:15;;;;;;;7.53;6.63;;;;;13.50;96554.00;;;;5096501;28;20244;-69
2023/05/11 06:18:04;;;;;;;7.37;6.23;;;;;13.20;96549.00;;;;5108315;28;20230;-69
2023/05/11 06:20:55;;;;;;;7.43;6.63;;;;;13.40;96550.00;;;;5107347;28;20198;-68
2023/05/11 06:23:44;;;;;;;8.47;5.70;;;;;13.80;96555.00;;;;5104411;28;20279;-68
2023/05/11 06:26:33;;;;;;;7.57;6.07;;;;;13.70;96554.00;;;;5082646;28;20930;-68
2023/05/11 06:29:22;;;;;;;9.10;7.27;;;;;13.60;96543.00;;;;5083740;28;20239;-68
2023/05/11 06:32:11;;;;;;;7.73;6.30;;;;;13.70;96560.00;;;;5084393;28;20209;-71
2023/05/11 06:35:00;;;;;;;11.00;7.67;;;;;13.90;96554.00;;;;5085579;28;20682;-70
2023/05/11 06:37:50;;;;;;;6.53;5.47;;;;;13.80;96547.00;;;;5095456;28;20701;-69
2023/05/11 06:40:39;;;;;;;6.73;5.70;;;;;14.00;96554.00;;;;5097988;28;20292;-69
2023/05/11 06:43:28;;;;;;;11.57;4.67;;;;;13.90;96549.00;;;;5108757;28;20213;-69
2023/05/11 06:46:17;;;;;;;4.60;4.20;;;;;13.80;96555.00;;;;5108438;28;20238;-69
2023/05/11 06:49:07;;;;;;;5.70;4.13;;;;;13.80;96546.00;;;;5108194;28;20210;-69
2023/05/11 06:51:56;;;;;;;4.47;4.07;;;;;13.80;96558.00;;;;5107381;28;20206;-69
2023/05/11 06:54:47;;;;;;;6.60;4.87;;;;;13.80;96560.00;;;;5086657;28;20248;-69
2023/05/11 06:57:36;;;;;;;7.17;5.20;;;;;13.70;96554.00;;;;5085148;28;20230;-69
2023/05/11 07:00:25;;;;;;;10.57;6.07;;;;;13.70;96555.00;;;;5087357;28;20689;-69
2023/05/11 07:03:14;;;;;;;6.63;5.23;;;;;13.60;96548.00;;;;5084810;28;20211;-69
2023/05/11 07:06:04;;;;;;;7.90;5.53;;;;;13.40;96555.00;;;;5087626;28;20206;-68
2023/05/11 07:08:53;;;;;;;8.50;5.57;;;;;13.70;96549.00;;;;5080737;28;20199;-68
2023/05/11 07:11:43;;;;;;;7.30;4.83;;;;;13.80;96541.00;;;;5085379;28;20202;-68
2023/05/11 07:14:32;;;;;;;11.30;5.30;;;;;13.80;96560.00;;;;5087952;28;20257;-68
2023/05/11 07:17:21;;;;;;;7.10;5.33;;;;;13.40;96543.00;;;;5088415;28;20223;-68
2023/05/11 07:20:11;;;;;;;8.60;5.70;;;;;13.70;96541.00;;;;5084396;28;20203;-69
2023/05/11 07:23:00;;;;;;;6.43;5.67;;;;;13.70;96549.00;;;;5083090;28;20244;-68
2023/05/11 07:25:52;;;;;;;5.73;5.23;;;;;13.30;96554.00;;;;5081556;28;20199;-69
2023/05/11 07:28:42;;;;;;;7.33;4.93;;;;;13.50;96552.00;;;;5088476;28;20196;-68
2023/05/11 07:31:32;;;;;;;5.63;5.10;;;;;13.70;96548.00;;;;5087005;28;20261;-68
2023/05/11 07:34:21;;;;;;;6.43;5.77;;;;;13.70;96543.00;;;;5087134;28;20692;-68
2023/05/11 07:37:11;;;;;;;6.80;4.53;;;;;13.70;96547.00;;;;5087115;28;20254;-68
2023/05/11 07:40:00;;;;;;;6.07;5.03;;;;;13.40;96546.00;;;;5092386;28;20210;-68
2023/05/11 07:42:49;;;;;;;5.53;5.03;;;;;13.30;96545.00;;;;5086061;28;20214;-68
2023/05/11 07:45:39;;;;;;;6.27;5.10;;;;;13.50;96542.00;;;;5091241;28;20562;-68
2023/05/11 07:48:29;;;;;;;8.90;5.03;;;;;13.60;96547.00;;;;5091813;28;20199;-67
2023/05/11 07:51:18;;;;;;;6.43;5.40;;;;;13.50;96545.00;;;;5090938;28;20196;-68
2023/05/11 07:54:07;;;;;;;4.77;4.33;;;;;13.20;96556.00;;;;5092139;28;20211;-70
2023/05/11 07:56:56;;;;;;;5.50;4.93;;;;;13.50;96551.00;;;;5085646;28;20356;-68
2023/05/11 07:59:45;;;;;;;6.60;5.53;;;;;13.50;96553.00;;;;5091623;28;20215;-68
2023/05/11 08:02:35;;;;;;;5.60;5.10;;;;;13.50;96568.00;;;;5089227;28;20214;-68
2023/05/11 08:05:24;;;;;;;4.87;4.43;;;;;13.60;96554.00;;;;5090858;28;20206;-67
2023/05/11 08:08:14;;;;;;;7.83;4.67;;;;;13.30;96561.00;;;;5096046;28;20691;-68
2023/05/11 08:11:04;;;;;;;7.30;5.00;;;;;13.30;96570.00;;;;5091044;28;20237;-71
2023/05/11 08:13:53;;;;;;;8.10;5.30;;;;;13.50;96561.00;;;;5091215;28;20191;-68
2023/05/11 08:16:42;;;;;;;6.63;6.03;;;;;13.90;96568.00;;;;5091175;28;20223;-68
2023/05/11 08:19:33;;;;;;;5.43;4.70;;;;;13.30;96560.00;;;;5090411;28;20716;-70
2023/05/11 08:22:22;;;;;;;8.27;5.90;;;;;13.00;96556.00;;;;5090685;28;20214;-70
2023/05/11 08:25:12;;;;;;;7.43;4.93;;;;;13.80;96567.00;;;;5090491;28;20674;-68
2023/05/11 08:28:01;;;;;;;6.37;5.77;;;;;13.50;96571.00;;;;5090006;28;20226;-68
2023/05/11 08:30:56;;;;;;;8.20;5.33;;;;;13.60;96564.00;;;;5089047;28;20222;-68
2023/05/11 08:33:45;;;;;;;6.97;5.77;;;;;14.10;96565.00;;;;5090909;28;20204;-68
2023/05/11 08:36:36;;;;;;;7.67;5.50;;;;;14.10;96567.00;;;;5107831;28;20226;-68
2023/05/11 08:39:25;;;;;;;7.13;5.77;;;;;13.70;96563.00;;;;5104095;28;20255;-68
2023/05/11 08:42:27;;;;;;;7.77;5.33;;;;;13.80;96563.00;;;;5110116;28;20274;-68
2023/05/11 08:45:17;;;;;;;7.70;5.13;;;;;14.10;96569.00;;;;5109922;28;20240;-69
2023/05/11 08:48:06;;;;;;;7.53;6.37;;;;;14.20;96566.00;;;;5108035;28;20218;-69
2023/05/11 08:50:55;;;;;;;5.97;5.33;;;;;14.00;96548.00;;;;5110724;28;20597;-68
2023/05/11 08:53:46;;;;;;;8.47;5.40;;;;;13.60;96547.00;;;;5110733;28;20224;-67
2023/05/11 08:56:35;;;;;;;8.97;6.47;;;;;14.00;96560.00;;;;5109205;28;20226;-67
2023/05/11 08:59:27;;;;;;;8.73;5.37;;;;;14.00;96567.00;;;;5109643;28;20223;-67
2023/05/11 09:02:18;;;;;;;7.23;5.27;;;;;14.10;96559.00;;;;5110806;28;20202;-67
2023/05/11 09:05:07;;;;;;;8.73;5.60;;;;;14.20;96545.00;;;;5108088;28;20632;-67
2023/05/11 09:08:01;;;;;;;6.83;5.67;;;;;14.30;96545.00;;;;5101897;28;20242;-68
2023/05/11 09:10:51;;;;;;;9.13;6.23;;;;;14.30;96561.00;;;;5104240;28;20202;-68
2023/05/11 09:13:41;;;;;;;7.37;5.83;;;;;13.90;96548.00;;;;5107633;28;20704;-69
2023/05/11 09:16:29;;;;;;;8.87;6.00;;;;;13.70;96561.00;;;;5088645;28;20227;-67
2023/05/11 09:19:24;;;;;;;8.30;5.90;;;;;13.80;96560.00;;;;5096785;28;20225;-67
2023/05/11 09:22:13;;;;;;;9.20;6.40;;;;;13.70;96565.00;;;;5086828;28;20234;-68
2023/05/11 09:25:03;;;;;;;9.50;6.90;;;;;13.90;96557.00;;;;5085664;28;20228;-67
2023/05/11 09:27:54;;;;;;;9.37;5.80;;;;;13.80;96555.00;;;;5097879;28;20215;-68
2023/05/11 09:30:43;;;;;;;6.80;5.87;;;;;13.50;96541.00;;;;5098905;28;20206;-72
2023/05/11 09:33:32;;;;;;;6.87;5.73;;;;;13.80;96552.00;;;;5082330;28;20603;-70
2023/05/11 09:36:24;;;;;;;7.43;5.90;;;;;14.10;96549.00;;;;5104428;28;20241;-68
2023/05/11 09:39:13;;;;;;;6.67;5.47;;;;;14.00;96545.00;;;;5090066;28;20744;-67
2023/05/11 09:42:14;;;;;;;7.57;6.13;;;;;14.40;96548.00;;;;5100090;28;20210;-68
2023/05/11 09:45:05;;;;;;;7.23;6.07;;;;;14.20;96536.00;;;;5100683;28;20278;-67
2023/05/11 09:47:54;;;;;;;7.50;6.30;;;;;14.10;96545.00;;;;5108498;28;20748;-67
2023/05/11 09:50:43;;;;;;;8.30;5.90;;;;;14.20;96537.00;;;;5108302;28;20190;-73
2023/05/11 09:53:37;;;;;;;8.47;6.63;;;;;14.30;96538.00;;;;5108863;28;20697;-72
2023/05/11 09:56:44;;;;;;;7.00;5.67;;;;;14.30;96536.00;;;;5108377;28;20296;-70
2023/05/11 09:59:40;;;;;;;6.07;5.47;;;;;13.90;96534.00;;;;5107558;28;20295;-67
2023/05/11 10:02:31;;;;;;;11.70;6.13;;;;;13.60;96541.00;;;;5104192;28;20202;-74
2023/05/11 10:05:20;;;;;;;7.10;5.97;;;;;14.10;96527.00;;;;5108086;28;20214;-68
2023/05/11 10:08:10;;;;;;;7.70;6.40;;;;;14.10;96540.00;;;;5103531;28;20732;-69
2023/05/11 10:10:59;;;;;;;11.03;6.63;;;;;14.10;96535.00;;;;5099580;28;20217;-68
2023/05/11 10:13:48;;;;;;;8.23;6.17;;;;;13.50;96521.00;;;;5108057;28;20190;-69
2023/05/11 10:16:37;;;;;;;9.23;6.37;;;;;13.50;96533.00;;;;5088023;28;20223;-67
2023/05/11 10:19:28;;;;;;;7.53;6.30;;;;;13.90;96518.00;;;;5081268;28;20220;-67
2023/05/11 10:22:17;;;;;;;12.07;7.00;;;;;13.30;96515.00;;;;5089186;28;20263;-72
2023/05/11 10:25:07;;;;;;;8.23;6.47;;;;;13.90;96509.00;;;;5098011;28;20244;-69
2023/05/11 10:27:56;;;;;;;7.87;6.27;;;;;13.70;96505.00;;;;5096920;28;20230;-70
2023/05/11 10:30:45;;;;;;;8.93;6.70;;;;;13.90;96504.00;;;;5081956;28;20188;-69
2023/05/11 10:33:35;;;;;;;7.57;5.97;;;;;13.40;96501.00;;;;5082845;28;20208;-73
2023/05/11 10:36:27;;;;;;;8.13;6.50;;;;;13.40;96507.00;;;;5087697;28;20653;-66
2023/05/11 10:39:16;;;;;;;14.30;9.60;;;;;13.30;96506.00;;;;5083756;28;20234;-66
2023/05/11 10:42:26;;;;;;;16.33;8.17;;;;;13.50;96506.00;;;;5081464;28;20210;-66
2023/05/11 10:45:20;;;;;;;8.27;7.37;;;;;13.20;96516.00;;;;5080614;28;20207;-66
2023/05/11 10:48:37;;;;;;;10.93;8.90;;;;;13.40;96513.00;;;;5080434;28;20227;-67
2023/05/11 10:51:53;;;;;;;9.53;8.00;;;;;13.40;96526.00;;;;5075498;28;20203;-67
2023/05/11 10:54:58;;;;;;;10.33;8.00;;;;;13.30;96519.00;;;;5083481;28;20200;-67
2023/05/11 10:58:00;;;;;;;9.90;7.40;;;;;13.60;96523.00;;;;5082702;28;20731;-67
2023/05/11 11:01:25;;;;;;;9.93;7.23;;;;;13.70;96523.00;;;;5084825;28;20210;-67
2023/05/11 11:04:16;;;;;;;9.07;7.70;;;;;14.10;96529.00;;;;5078223;28;20214;-67
2023/05/11 11:07:07;;;;;;;10.67;8.53;;;;;14.20;96536.00;;;;5075260;28;20255;-67
2023/05/11 11:09:58;;;;;;;10.93;7.53;;;;;14.30;96526.00;;;;5086256;28;20195;-67
2023/05/11 11:13:03;;;;;;;7.80;6.83;;;;;14.30;96535.00;;;;5079985;28;20588;-67
2023/05/11 11:16:11;;;;;;;11.57;7.20;;;;;13.80;96536.00;;;;5086589;28;20210;-67
2023/05/11 11:19:37;;;;;;;8.67;7.27;;;;;13.60;96527.00;;;;5081748;28;20268;-67
2023/05/11 11:22:46;;;;;;;14.17;8.63;;;;;13.90;96526.00;;;;5074653;28;20208;-66
2023/05/11 11:25:52;;;;;;;12.57;8.80;;;;;14.00;96536.00;;;;5086352;28;20202;-66
2023/05/11 11:29:10;;;;;;;7.33;6.60;;;;;13.50;96528.00;;;;5087392;28;20205;-69
2023/05/11 11:32:26;;;;;;;10.87;8.27;;;;;13.60;96536.00;;;;5082110;28;20205;-66
2023/05/11 11:35:44;;;;;;;9.67;7.90;;;;;13.80;96534.00;;;;5086668;28;20705;-66
2023/05/11 11:38:59;;;;;;;9.73;8.43;;;;;13.60;96527.00;;;;5091094;28;20195;-67
2023/05/11 11:42:01;;;;;;;9.53;8.17;;;;;13.80;96541.00;;;;5090990;28;20211;-67
2023/05/11 11:44:50;;;;;;;10.90;8.13;;;;;14.00;96538.00;;;;5087091;28;20199;-67
2023/05/11 11:47:39;;;;;;;9.33;7.50;;;;;13.90;96534.00;;;;5086412;28;20223;-66
2023/05/11 11:50:28;;;;;;;8.77;7.87;;;;;13.80;96542.00;;;;5086936;28;20196;-66
2023/05/11 11:54:06;;;;;;;13.00;8.37;;;;;13.80;96547.00;;;;5085367;28;20207;-66
2023/05/11 11:56:56;;;;;;;9.37;7.53;;;;;14.00;96536.00;;;;5077667;28;20229;-66
2023/05/11 11:59:47;;;;;;;9.50;8.27;;;;;14.00;96536.00;;;;5086937;28;20230;-66
2023/05/11 12:02:40;;;;;;;11.63;7.90;;;;;13.80;96542.00;;;;5084487;28;20699;-66
2023/05/11 12:05:31;;;;;;;9.97;8.37;;;;;13.70;96536.00;;;;5086444;28;20211;-66
2023/05/11 12:08:20;;;;;;;8.23;7.40;;;;;13.80;96538.00;;;;5083377;28;20639;-66
2023/05/11 12:11:09;;;;;;;10.27;7.27;;;;;14.10;96548.00;;;;5101440;28;20199;-66
2023/05/11 12:14:00;;;;;;;8.13;7.00;;;;;14.00;96534.00;;;;5104353;28;20237;-66
2023/05/11 12:17:14;;;;;;;7.70;6.50;;;;;14.00;96537.00;;;;5092322;28;20606;-66
2023/05/11 12:20:14;;;;;;;8.90;8.00;;;;;14.20;96542.00;;;;5085428;28;20238;-66
2023/05/11 12:23:03;;;;;;;11.40;7.03;;;;;13.50;96536.00;;;;5093474;28;20214;-66
2023/05/11 12:26:01;;;;;;;10.13;9.07;;;;;13.80;96536.00;;;;5090696;28;20264;-66
2023/05/11 12:28:51;;;;;;;6.83;6.13;;;;;13.90;96531.00;;;;5092882;28;20203;-66
2023/05/11 12:31:43;;;;;;;9.27;7.07;;;;;13.60;96538.00;;;;5107743;28;20199;-66
2023/05/11 12:34:32;;;;;;;12.40;8.63;;;;;13.80;96545.00;;;;5104430;28;20658;-67
2023/05/11 12:37:21;;;;;;;8.87;7.43;;;;;13.70;96533.00;;;;5098428;28;20242;-65
2023/05/11 12:40:12;;;;;;;12.00;9.13;;;;;13.60;96525.00;;;;5108680;28;20234;-65
2023/05/11 12:43:01;;;;;;;15.07;8.87;;;;;13.30;96520.00;;;;5111298;28;20195;-65
2023/05/11 12:45:50;;;;;;;9.37;7.70;;;;;13.70;96517.00;;;;5097813;28;20207;-65
2023/05/11 12:48:41;;;;;;;8.13;6.63;;;;;13.70;96523.00;;;;5110961;28;20199;-65
2023/05/11 12:51:50;;;;;;;6.53;5.13;;;;;13.50;96510.00;;;;5099680;28;20203;-66
2023/05/11 12:54:42;;;;;;;6.47;5.80;;;;;13.90;96520.00;;;;5108293;28;20203;-68
2023/05/11 12:57:32;;;;;;;9.20;6.10;;;;;13.80;96515.00;;;;5090903;28;20234;-65
2023/05/11 13:00:21;;;;;;;6.20;5.40;;;;;14.00;96514.00;;;;5090423;28;20208;-66
2023/05/11 13:03:11;;;;;;;6.13;5.53;;;;;13.70;96517.00;;;;5090739;28;20622;-66
2023/05/11 13:06:09;;;;;;;12.50;6.33;;;;;14.20;96514.00;;;;5084344;28;20206;-66
2023/05/11 13:09:00;;;;;;;7.53;5.70;;;;;14.00;96515.00;;;;5084206;28;20552;-66
2023/05/11 13:11:49;;;;;;;10.47;5.20;;;;;13.80;96513.00;;;;5089090;28;20196;-68
2023/05/11 13:14:38;;;;;;;6.23;5.63;;;;;13.70;96514.00;;;;5088444;28;20280;-67
2023/05/11 13:17:31;;;;;;;7.30;5.47;;;;;13.90;96506.00;;;;5089348;28;20230;-66
2023/05/11 13:20:22;;;;;;;6.93;6.23;;;;;14.00;96506.00;;;;5089486;28;20223;-66
2023/05/11 13:23:14;;;;;;;9.10;5.80;;;;;14.00;96516.00;;;;5090720;28;20697;-66
2023/05/11 13:26:03;;;;;;;7.40;6.20;;;;;13.90;96513.00;;;;5085426;28;20203;-66
2023/05/11 13:28:52;;;;;;;6.53;5.83;;;;;14.10;96508.00;;;;5083963;28;20203;-66
2023/05/11 13:31:51;;;;;;;6.50;5.90;;;;;14.20;96513.00;;;;5089116;28;20202;-66
2023/05/11 13:34:40;;;;;;;7.47;5.70;;;;;14.30;96501.00;;;;5089372;28;20585;-66
2023/05/11 13:37:29;;;;;;;8.43;5.50;;;;;14.20;96505.00;;;;5088522;28;20227;-66
2023/05/11 13:40:19;;;;;;;11.17;5.40;;;;;13.80;96505.00;;;;5089741;28;20223;-66
2023/05/11 13:43:09;;;;;;;7.53;6.63;;;;;14.00;96498.00;;;;5090496;28;20865;-66
2023/05/11 13:45:58;;;;;;;8.60;6.20;;;;;13.60;96503.00;;;;5091293;28;20195;-66
2023/05/11 13:48:47;;;;;;;6.47;5.40;;;;;14.00;96505.00;;;;5089376;28;20272;-66
2023/05/11 13:51:36;;;;;;;6.47;5.30;;;;;14.00;96513.00;;;;5087705;28;20206;-65
2023/05/11 13:54:25;;;;;;;5.80;5.20;;;;;14.00;96510.00;;;;5089990;28;20222;-65
2023/05/11 13:57:15;;;;;;;7.83;5.90;;;;;14.00;96513.00;;;;5089976;28;20277;-65
2023/05/11 14:00:05;;;;;;;8.13;5.60;;;;;14.10;96531.00;;;;5073345;28;20211;-65
2023/05/11 14:02:56;;;;;;;6.77;6.10;;;;;13.90;96520.00;;;;5088773;28;20635;-65
2023/05/11 14:05:47;;;;;;;11.13;5.73;;;;;14.00;96517.00;;;;5086654;28;20701;-65
2023/05/11 14:08:36;;;;;;;6.43;5.27;;;;;14.00;96526.00;;;;5062696;28;20227;-65
2023/05/11 14:11:26;;;;;;;7.83;7.03;;;;;14.10;96528.00;;;;5067125;28;20327;-66
2023/05/11 14:14:16;;;;;;;10.17;6.43;;;;;14.10;96521.00;;;;5066070;28;20211;-66
2023/05/11 14:17:06;;;;;;;7.43;6.70;;;;;14.00;96524.00;;;;5062222;28;21026;-66